createdAt,value
2018-07-13T00:00:22.768Z,5.40
2018-07-13T00:02:49.176Z,5.20
2018-07-13T00:05:17.221Z,5.73
2018-07-13T00:07:43.933Z,5.87
2018-07-13T00:10:10.326Z,5.50
2018-07-13T00:12:39.231Z,5.13
2018-07-13T00:15:05.617Z,5.43
2018-07-13T00:17:32.022Z,5.07
2018-07-13T00:19:59.056Z,5.50
2018-07-13T00:22:25.608Z,5.70
2018-07-13T00:24:52.001Z,5.70
2018-07-13T00:27:19.739Z,5.13
2018-07-13T00:29:46.147Z,5.53
2018-07-13T00:32:13.104Z,5.00
2018-07-13T00:34:39.671Z,5.63
2018-07-13T00:37:05.995Z,5.70
2018-07-13T00:39:32.834Z,5.03
2018-07-13T00:41:59.257Z,5.30
2018-07-13T00:44:26.102Z,5.70
2018-07-13T00:46:53.976Z,5.27
2018-07-13T00:49:20.489Z,5.57
2018-07-13T00:51:49.913Z,5.63
2018-07-13T00:54:16.235Z,5.27
2018-07-13T00:56:42.725Z,5.73
2018-07-13T00:59:09.210Z,5.70
2018-07-13T01:01:35.553Z,5.87
2018-07-13T01:04:02.084Z,5.70
2018-07-13T01:06:28.458Z,5.03
2018-07-13T01:08:54.863Z,5.73
2018-07-13T01:11:21.434Z,5.10
2018-07-13T01:13:47.865Z,5.23
2018-07-13T01:16:14.884Z,5.20
2018-07-13T01:18:41.204Z,5.50
2018-07-13T01:21:07.875Z,4.90
2018-07-13T01:23:34.697Z,4.50
2018-07-13T01:26:01.023Z,4.93
2018-07-13T01:28:27.388Z,4.83
2018-07-13T01:30:54.120Z,4.80
2018-07-13T01:33:20.809Z,4.60
2018-07-13T01:35:47.243Z,4.60
2018-07-13T01:38:13.671Z,3.83
2018-07-13T01:40:40.004Z,4.20
2018-07-13T01:43:06.795Z,4.07
2018-07-13T01:45:33.182Z,4.20
2018-07-13T01:47:59.584Z,4.30
2018-07-13T01:50:26.712Z,4.10
2018-07-13T01:52:53.015Z,4.27
2018-07-13T01:55:19.625Z,4.20
2018-07-13T01:57:45.979Z,4.23
2018-07-13T02:00:12.672Z,4.37
2018-07-13T02:02:40.307Z,3.80
2018-07-13T02:05:06.933Z,4.10
2018-07-13T02:07:33.617Z,4.00
2018-07-13T02:09:59.979Z,3.63
2018-07-13T02:12:26.302Z,3.80
2018-07-13T02:14:52.701Z,4.10
2018-07-13T02:17:19.097Z,4.00
2018-07-13T02:19:46.805Z,4.53
2018-07-13T02:22:13.290Z,3.70
2018-07-13T02:24:39.791Z,4.00
2018-07-13T02:27:06.108Z,3.73
2018-07-13T02:29:32.896Z,4.10
2018-07-13T02:31:59.241Z,3.97
2018-07-13T02:34:26.099Z,4.03
2018-07-13T02:36:52.854Z,4.17
2018-07-13T02:39:19.280Z,4.00
2018-07-13T02:41:45.661Z,3.80
2018-07-13T02:44:12.090Z,3.93
2018-07-13T02:46:38.629Z,4.03
2018-07-13T02:49:05.154Z,4.33
2018-07-13T02:51:31.498Z,3.90
2018-07-13T02:53:58.038Z,3.73
2018-07-13T02:56:24.363Z,4.67
2018-07-13T02:58:50.721Z,3.80
2018-07-13T03:01:17.675Z,4.57
2018-07-13T03:03:44.403Z,4.10
2018-07-13T03:06:10.734Z,4.33
2018-07-13T03:08:37.252Z,4.20
2018-07-13T03:11:03.634Z,3.90
2018-07-13T03:13:29.987Z,4.60
2018-07-13T03:15:56.364Z,4.17
2018-07-13T03:18:22.758Z,3.53
2018-07-13T03:20:49.131Z,3.70
2018-07-13T03:23:15.491Z,4.00
2018-07-13T03:25:41.859Z,3.87
2018-07-13T03:28:08.205Z,4.30
2018-07-13T03:30:35.254Z,3.47
2018-07-13T03:33:03.634Z,3.57
2018-07-13T03:35:30.193Z,3.67
2018-07-13T03:37:56.522Z,3.77
2018-07-13T03:40:23.091Z,3.90
2018-07-13T03:42:49.472Z,3.87
2018-07-13T03:45:15.886Z,3.60
2018-07-13T03:47:42.219Z,4.30
2018-07-13T03:50:08.666Z,3.80
2018-07-13T03:52:35.018Z,3.57
2018-07-13T03:55:01.432Z,4.43
2018-07-13T03:57:28.487Z,4.10
2018-07-13T03:59:55.633Z,4.10
2018-07-13T04:02:22.292Z,4.30
2018-07-13T04:04:49.161Z,4.10
2018-07-13T04:07:16.640Z,4.70
2018-07-13T04:09:43.302Z,4.60
2018-07-13T04:12:09.711Z,4.20
2018-07-13T04:14:36.776Z,4.10
2018-07-13T04:17:03.569Z,4.27
2018-07-13T04:19:30.003Z,3.80
2018-07-13T04:21:56.329Z,4.20
2018-07-13T04:24:23.409Z,4.20
2018-07-13T04:26:50.292Z,4.43
2018-07-13T04:29:17.012Z,4.47
2018-07-13T04:31:43.395Z,4.70
2018-07-13T04:34:10.345Z,4.03
2018-07-13T04:36:37.348Z,4.37
2018-07-13T04:39:04.054Z,4.33
2018-07-13T04:41:30.652Z,3.67
2018-07-13T04:43:58.166Z,5.00
2018-07-13T04:46:25.502Z,4.10
2018-07-13T04:48:52.005Z,4.23
2018-07-13T04:51:19.253Z,4.20
2018-07-13T04:53:46.453Z,4.73
2018-07-13T04:56:13.181Z,4.07
2018-07-13T04:58:39.610Z,4.10
2018-07-13T05:01:06.883Z,4.73
2018-07-13T05:03:34.048Z,4.17
2018-07-13T05:06:00.594Z,4.03
2018-07-13T05:08:27.067Z,4.93
2018-07-13T05:10:53.785Z,3.97
2018-07-13T05:13:22.007Z,3.77
2018-07-13T05:15:48.952Z,4.00
2018-07-13T05:18:15.393Z,4.10
2018-07-13T05:20:42.777Z,4.40
2018-07-13T05:23:09.538Z,4.53
2018-07-13T05:25:36.283Z,4.10
2018-07-13T05:28:02.701Z,4.00
2018-07-13T05:30:29.913Z,4.60
2018-07-13T05:32:57.183Z,4.43
2018-07-13T05:35:25.043Z,4.43
2018-07-13T05:37:51.683Z,4.40
2018-07-13T05:40:18.844Z,4.40
2018-07-13T05:42:46.145Z,4.70
2018-07-13T05:45:13.057Z,4.67
2018-07-13T05:47:39.956Z,4.80
2018-07-13T05:50:06.689Z,5.13
2018-07-13T05:52:33.896Z,5.40
2018-07-13T05:55:00.951Z,4.83
2018-07-13T05:57:27.800Z,4.60
2018-07-13T05:59:54.505Z,4.70
2018-07-13T06:02:21.045Z,5.43
2018-07-13T06:04:48.118Z,4.70
2018-07-13T06:07:14.650Z,5.30
2018-07-13T06:09:41.069Z,5.07
2018-07-13T06:12:07.458Z,5.87
2018-07-13T06:14:34.076Z,5.00
2018-07-13T06:17:00.808Z,5.20
2018-07-13T06:19:27.605Z,4.90
2018-07-13T06:21:54.119Z,5.10
2018-07-13T06:24:20.549Z,6.00
2018-07-13T06:26:47.314Z,5.70
2018-07-13T06:29:13.799Z,5.87
2018-07-13T06:31:40.237Z,6.17
2018-07-13T06:34:06.647Z,6.57
2018-07-13T06:36:33.070Z,7.00
2018-07-13T06:38:59.977Z,6.40
2018-07-13T06:41:26.893Z,7.00
2018-07-13T06:43:53.966Z,7.80
2018-07-13T06:46:20.479Z,7.80
2018-07-13T06:48:47.082Z,6.67
2018-07-13T06:51:13.894Z,8.30
2018-07-13T06:53:40.736Z,8.37
2018-07-13T06:56:07.424Z,8.57
2018-07-13T06:58:34.024Z,8.30
2018-07-13T07:01:00.465Z,8.30
2018-07-13T07:03:27.039Z,7.97
2018-07-13T07:05:54.066Z,7.60
2018-07-13T07:08:20.784Z,9.63
2018-07-13T07:10:47.554Z,8.57
2018-07-13T07:13:14.296Z,8.60
2018-07-13T07:15:41.054Z,8.20
2018-07-13T07:18:08.148Z,8.77
2018-07-13T07:20:35.003Z,9.70
2018-07-13T07:23:01.514Z,9.00
2018-07-13T07:25:28.668Z,9.33
2018-07-13T07:27:56.162Z,9.13
2018-07-13T07:30:23.313Z,9.70
2018-07-13T07:35:21.250Z,9.37
2018-07-13T07:37:48.593Z,10.10
2018-07-13T07:42:53.579Z,10.17
2018-07-13T07:45:20.687Z,10.20
2018-07-13T07:47:47.893Z,10.87
2018-07-13T07:50:15.108Z,11.60
2018-07-13T07:52:41.997Z,10.37
2018-07-13T07:55:08.734Z,10.27
2018-07-13T07:57:35.241Z,12.20
2018-07-13T08:00:09.682Z,10.60
2018-07-13T08:02:37.099Z,11.40
2018-07-13T08:05:04.036Z,11.37
2018-07-13T08:07:32.142Z,11.57
2018-07-13T08:09:59.246Z,11.33
2018-07-13T08:12:26.448Z,12.30
2018-07-13T08:14:53.514Z,11.80
2018-07-13T08:17:20.667Z,11.93
2018-07-13T08:19:47.531Z,11.20
2018-07-13T08:22:14.618Z,11.80
2018-07-13T08:24:41.376Z,12.00
2018-07-13T08:27:08.426Z,12.20
2018-07-13T08:29:34.931Z,12.27
2018-07-13T08:32:01.618Z,12.53
2018-07-13T08:34:28.152Z,12.17
2018-07-13T08:36:55.567Z,11.57
2018-07-13T08:39:22.425Z,11.37
2018-07-13T08:41:49.261Z,12.37
2018-07-13T08:44:16.075Z,12.40
2018-07-13T08:46:43.559Z,12.50
2018-07-13T08:49:10.416Z,11.60
2018-07-13T08:51:37.569Z,11.17
2018-07-13T08:54:04.308Z,12.47
2018-07-13T08:56:31.099Z,11.67
2018-07-13T08:58:57.860Z,11.50
2018-07-13T09:01:24.565Z,12.03
2018-07-13T09:03:50.942Z,11.70
2018-07-13T09:06:18.215Z,11.67
2018-07-13T09:08:44.882Z,11.87
2018-07-13T09:11:11.360Z,10.83
2018-07-13T09:13:38.136Z,10.60
2018-07-13T09:16:04.899Z,11.90
2018-07-13T09:18:31.291Z,11.40
2018-07-13T09:23:36.120Z,11.80
2018-07-13T09:26:02.523Z,12.47
2018-07-13T09:28:29.187Z,11.43
2018-07-13T09:30:55.945Z,10.80
2018-07-13T09:33:22.547Z,11.30
2018-07-13T09:35:49.412Z,10.83
2018-07-13T09:38:16.155Z,10.73
2018-07-13T09:40:42.717Z,11.50
2018-07-13T09:43:09.992Z,10.93
2018-07-13T09:45:36.458Z,11.00
2018-07-13T09:48:03.319Z,11.33
2018-07-13T09:53:09.078Z,10.77
2018-07-13T09:55:36.065Z,10.70
2018-07-13T09:58:02.591Z,11.20
2018-07-13T10:00:29.746Z,10.40
2018-07-13T10:02:56.464Z,10.77
2018-07-13T10:05:22.940Z,10.10
2018-07-13T10:07:49.752Z,11.40
2018-07-13T10:10:16.403Z,11.00
2018-07-13T10:12:43.435Z,11.40
2018-07-13T10:15:10.564Z,11.20
2018-07-13T10:17:37.448Z,10.30
2018-07-13T10:22:45.282Z,10.97
2018-07-13T10:25:11.758Z,11.87
2018-07-13T10:27:38.625Z,11.30
2018-07-13T10:30:06.174Z,10.90
2018-07-13T10:32:32.799Z,10.00
2018-07-13T10:35:00.815Z,12.00
2018-07-13T10:37:27.738Z,10.13
2018-07-13T10:39:54.800Z,10.77
2018-07-13T10:42:22.289Z,11.07
2018-07-13T10:44:49.585Z,10.77
2018-07-13T10:47:16.497Z,11.50
2018-07-13T10:49:43.742Z,11.40
2018-07-13T10:52:10.828Z,11.37
2018-07-13T10:54:37.375Z,11.20
2018-07-13T10:57:04.250Z,11.37
2018-07-13T10:59:31.084Z,9.63
2018-07-13T11:01:58.560Z,10.47
2018-07-13T11:04:26.240Z,10.67
2018-07-13T11:06:53.643Z,10.80
2018-07-13T11:09:22.757Z,10.50
2018-07-13T11:11:49.359Z,10.40
2018-07-13T11:14:15.799Z,11.30
2018-07-13T11:16:42.411Z,10.47
2018-07-13T11:19:09.518Z,9.90
2018-07-13T11:21:36.755Z,9.80
2018-07-13T11:24:03.696Z,10.10
2018-07-13T11:26:30.223Z,10.77
2018-07-13T11:28:56.686Z,10.40
2018-07-13T11:31:23.505Z,10.40
2018-07-13T11:33:50.767Z,10.87
2018-07-13T11:36:17.687Z,9.13
2018-07-13T11:38:44.942Z,10.17
2018-07-13T11:41:11.805Z,10.10
2018-07-13T11:43:38.572Z,10.70
2018-07-13T11:46:05.680Z,9.57
2018-07-13T11:48:32.224Z,11.20
2018-07-13T11:50:59.596Z,9.90
2018-07-13T11:53:32.686Z,10.73
2018-07-13T11:56:00.665Z,11.20
2018-07-13T11:58:27.610Z,10.10
2018-07-13T12:00:54.306Z,10.50
2018-07-13T12:03:22.265Z,10.70
2018-07-13T12:05:49.142Z,9.00
2018-07-13T12:08:16.094Z,9.20
2018-07-13T12:10:44.036Z,9.43
2018-07-13T12:13:10.845Z,10.60
2018-07-13T12:15:38.286Z,9.40
2018-07-13T12:18:05.611Z,10.43
2018-07-13T12:20:32.418Z,9.27
2018-07-13T12:22:59.079Z,9.80
2018-07-13T12:25:25.592Z,9.60
2018-07-13T12:27:52.284Z,8.90
2018-07-13T12:30:18.999Z,9.40
2018-07-13T12:32:45.653Z,9.67
2018-07-13T12:35:12.449Z,9.00
2018-07-13T12:37:39.359Z,9.60
2018-07-13T12:40:06.428Z,9.20
2018-07-13T12:42:34.891Z,8.97
2018-07-13T12:45:01.558Z,9.10
2018-07-13T12:47:28.352Z,9.60
2018-07-13T12:49:55.492Z,10.63
2018-07-13T12:52:22.054Z,10.07
2018-07-13T12:54:49.058Z,8.57
2018-07-13T12:57:16.006Z,8.97
2018-07-13T12:59:42.753Z,9.13
2018-07-13T13:02:09.842Z,9.73
2018-07-13T13:04:36.800Z,9.20
2018-07-13T13:07:03.704Z,8.50
2018-07-13T13:09:30.632Z,9.00
2018-07-13T13:11:57.556Z,9.30
2018-07-13T13:14:24.567Z,9.17
2018-07-13T13:16:51.284Z,8.77
2018-07-13T13:19:18.295Z,8.93
2018-07-13T13:21:44.973Z,8.30
2018-07-13T13:24:11.385Z,9.60
2018-07-13T13:26:38.278Z,8.60
2018-07-13T13:29:05.053Z,9.43
2018-07-13T13:31:31.806Z,8.70
2018-07-13T13:33:58.692Z,8.93
2018-07-13T13:36:25.927Z,8.47
2018-07-13T13:38:52.803Z,8.50
2018-07-13T13:41:19.704Z,9.20
2018-07-13T13:43:46.308Z,8.20
2018-07-13T13:46:13.276Z,9.20
2018-07-13T13:48:40.317Z,9.10
2018-07-13T13:51:08.956Z,9.80
2018-07-13T13:53:36.214Z,7.70
2018-07-13T13:56:03.236Z,8.93
2018-07-13T13:58:30.114Z,7.90
2018-07-13T14:00:56.615Z,8.10
2018-07-13T14:03:23.301Z,8.27
2018-07-13T14:05:50.601Z,8.40
2018-07-13T14:08:17.441Z,8.77
2018-07-13T14:10:46.253Z,8.40
2018-07-13T14:13:13.431Z,8.27
2018-07-13T14:15:40.060Z,8.80
2018-07-13T14:18:06.651Z,10.43
2018-07-13T14:20:33.764Z,10.90
2018-07-13T14:23:00.765Z,10.83
2018-07-13T14:25:27.343Z,10.07
2018-07-13T14:27:54.023Z,12.40
2018-07-13T14:30:20.557Z,12.47
2018-07-13T14:32:47.440Z,10.63
2018-07-13T14:35:14.251Z,12.20
2018-07-13T14:37:41.681Z,11.20
2018-07-13T14:40:08.709Z,11.40
2018-07-13T14:42:35.455Z,12.03
2018-07-13T14:45:02.277Z,11.33
2018-07-13T14:47:29.347Z,10.87
2018-07-13T14:49:55.874Z,10.17
2018-07-13T14:52:22.649Z,10.63
2018-07-13T14:54:50.371Z,10.70
2018-07-13T14:57:17.330Z,11.37
2018-07-13T14:59:43.927Z,10.73
2018-07-13T15:02:10.338Z,9.90
2018-07-13T15:04:36.863Z,10.87
2018-07-13T15:07:03.303Z,9.50
2018-07-13T15:09:30.052Z,9.83
2018-07-13T15:11:56.500Z,10.43
2018-07-13T15:14:23.108Z,10.00
2018-07-13T15:16:49.899Z,9.17
2018-07-13T15:19:16.541Z,9.30
2018-07-13T15:21:43.150Z,9.33
2018-07-13T15:24:09.997Z,8.47
2018-07-13T15:26:39.570Z,7.77
2018-07-13T15:29:06.132Z,8.67
2018-07-13T15:31:32.470Z,8.60
2018-07-13T15:33:59.051Z,9.83
2018-07-13T15:36:25.781Z,8.60
2018-07-13T15:38:52.169Z,8.70
2018-07-13T15:41:19.184Z,9.20
2018-07-13T15:43:45.674Z,8.03
2018-07-13T15:46:12.072Z,7.77
2018-07-13T15:48:38.679Z,8.77
2018-07-13T15:51:05.349Z,8.23
2018-07-13T15:53:31.711Z,8.60
2018-07-13T15:55:58.251Z,7.90
2018-07-13T15:58:24.741Z,8.57
2018-07-13T16:00:51.118Z,8.37
2018-07-13T16:03:17.889Z,8.47
2018-07-13T16:05:44.355Z,8.93
2018-07-13T16:08:10.728Z,8.43
2018-07-13T16:10:37.190Z,9.03
2018-07-13T16:13:03.494Z,8.87
2018-07-13T16:15:29.922Z,8.80
2018-07-13T16:17:56.238Z,8.80
2018-07-13T16:20:22.592Z,9.23
2018-07-13T16:22:49.141Z,8.97
2018-07-13T16:25:15.970Z,8.70
2018-07-13T16:27:42.581Z,8.87
2018-07-13T16:30:09.003Z,8.40
2018-07-13T16:32:35.423Z,9.57
2018-07-13T16:35:01.787Z,9.20
2018-07-13T16:37:28.132Z,9.40
2018-07-13T16:39:54.500Z,10.03
2018-07-13T16:42:20.889Z,9.60
2018-07-13T16:44:47.279Z,9.57
2018-07-13T16:47:14.004Z,9.80
2018-07-13T16:49:40.351Z,9.97
2018-07-13T16:52:06.712Z,9.70
2018-07-13T16:54:33.060Z,9.83
2018-07-13T16:56:59.597Z,9.27
2018-07-13T16:59:26.013Z,9.80
2018-07-13T17:01:52.375Z,10.00
2018-07-13T17:04:19.391Z,9.40
2018-07-13T17:06:45.744Z,9.40
2018-07-13T17:09:12.148Z,8.67
2018-07-13T17:11:38.495Z,9.60
2018-07-13T17:14:04.827Z,9.73
2018-07-13T17:16:31.259Z,11.40
2018-07-13T17:18:57.590Z,9.87
2018-07-13T17:21:23.931Z,12.50
2018-07-13T17:23:50.291Z,12.13
2018-07-13T17:26:16.789Z,11.90
2018-07-13T17:28:43.222Z,13.20
2018-07-13T17:31:09.624Z,12.60
2018-07-13T17:33:35.998Z,12.90
2018-07-13T17:36:02.364Z,14.27
2018-07-13T17:38:28.691Z,14.20
2018-07-13T17:40:55.029Z,14.27
2018-07-13T17:43:21.448Z,14.60
2018-07-13T17:45:47.958Z,14.57
2018-07-13T17:48:14.428Z,14.97
2018-07-13T17:50:40.789Z,15.30
2018-07-13T17:53:07.123Z,13.97
2018-07-13T17:55:33.503Z,14.70
2018-07-13T17:57:59.847Z,14.40
2018-07-13T18:00:26.244Z,15.33
2018-07-13T18:02:52.604Z,14.43
2018-07-13T18:05:19.122Z,14.23
2018-07-13T18:07:45.469Z,13.20
2018-07-13T18:10:11.855Z,14.30
2018-07-13T18:12:38.254Z,14.03
2018-07-13T18:15:04.768Z,14.20
2018-07-13T18:17:31.050Z,14.13
2018-07-13T18:19:57.401Z,13.60
2018-07-13T18:22:23.800Z,14.60
2018-07-13T18:24:50.164Z,13.40
2018-07-13T18:27:16.521Z,13.33
2018-07-13T18:29:42.916Z,13.63
2018-07-13T18:32:09.284Z,12.50
2018-07-13T18:34:35.640Z,12.77
2018-07-13T18:37:02.018Z,13.10
2018-07-13T18:39:28.374Z,13.03
2018-07-13T18:41:54.758Z,12.50
2018-07-13T18:44:21.234Z,12.90
2018-07-13T18:46:47.689Z,12.30
2018-07-13T18:49:14.169Z,12.73
2018-07-13T18:51:40.514Z,13.00
2018-07-13T18:54:06.892Z,12.33
2018-07-13T18:56:33.280Z,11.23
2018-07-13T18:58:59.619Z,12.20
2018-07-13T19:01:25.980Z,11.87
2018-07-13T19:03:52.339Z,13.80
2018-07-13T19:06:18.906Z,12.17
2018-07-13T19:11:17.842Z,12.17
2018-07-13T19:13:44.310Z,11.60
2018-07-13T19:16:10.733Z,12.30
2018-07-13T19:18:37.102Z,12.80
2018-07-13T19:21:03.437Z,11.77
2018-07-13T19:23:29.815Z,12.40
2018-07-13T19:25:56.603Z,11.70
2018-07-13T19:28:22.963Z,11.63
2018-07-13T19:30:49.568Z,12.17
2018-07-13T19:33:15.883Z,11.60
2018-07-13T19:35:42.234Z,11.90
2018-07-13T19:38:08.566Z,12.60
2018-07-13T19:40:34.946Z,11.37
2018-07-13T19:43:01.286Z,11.10
2018-07-13T19:45:27.633Z,11.30
2018-07-13T19:47:53.995Z,11.30
2018-07-13T19:50:20.386Z,12.27
2018-07-13T19:52:46.744Z,11.23
2018-07-13T19:55:13.118Z,10.97
2018-07-13T19:57:39.519Z,11.77
2018-07-13T20:00:05.899Z,11.63
2018-07-13T20:02:32.243Z,11.83
2018-07-13T20:04:58.647Z,11.00
2018-07-13T20:07:25.106Z,11.30
2018-07-13T20:09:51.497Z,12.27
2018-07-13T20:12:18.126Z,10.83
2018-07-13T20:14:44.559Z,11.10
2018-07-13T20:17:10.983Z,11.43
2018-07-13T20:19:37.308Z,11.13
2018-07-13T20:22:03.665Z,10.90
2018-07-13T20:24:30.023Z,11.40
2018-07-13T20:26:56.421Z,12.03
2018-07-13T20:29:22.804Z,11.20
2018-07-13T20:31:49.786Z,11.00
2018-07-13T20:34:17.654Z,12.03
2018-07-13T20:36:44.466Z,11.33
2018-07-13T20:39:11.355Z,11.07
2018-07-13T20:41:38.732Z,10.50
2018-07-13T20:44:07.235Z,10.80
2018-07-13T20:46:34.210Z,11.87
2018-07-13T20:49:01.018Z,11.60
2018-07-13T20:51:27.729Z,11.07
2018-07-13T20:53:55.879Z,10.60
2018-07-13T20:56:22.476Z,11.40
2018-07-13T20:58:48.827Z,11.33
2018-07-13T21:01:15.255Z,11.20
2018-07-13T21:03:41.646Z,11.53
2018-07-13T21:06:07.988Z,10.30
2018-07-13T21:08:34.491Z,10.80
2018-07-13T21:11:00.830Z,11.30
2018-07-13T21:13:27.175Z,11.60
2018-07-13T21:15:53.529Z,10.93
2018-07-13T21:18:19.988Z,10.77
2018-07-13T21:20:46.419Z,10.77
2018-07-13T21:23:12.742Z,11.30
2018-07-13T21:25:39.134Z,10.90
2018-07-13T21:28:05.573Z,10.97
2018-07-13T21:30:31.902Z,11.07
2018-07-13T21:32:58.255Z,11.50
2018-07-13T21:35:24.666Z,12.00
2018-07-13T21:37:51.098Z,11.27
2018-07-13T21:40:17.436Z,12.40
2018-07-13T21:42:43.865Z,10.80
2018-07-13T21:45:10.348Z,11.50
2018-07-13T21:47:36.671Z,11.60
2018-07-13T21:50:02.991Z,10.97
2018-07-13T21:52:29.363Z,10.77
2018-07-13T21:54:55.849Z,11.60
2018-07-13T21:57:22.287Z,11.77
2018-07-13T21:59:48.984Z,11.63
2018-07-13T22:02:15.379Z,10.57
2018-07-13T22:04:41.747Z,11.73
2018-07-13T22:07:08.062Z,11.37
2018-07-13T22:09:34.460Z,11.13
2018-07-13T22:12:01.696Z,10.50
2018-07-13T22:14:28.181Z,10.80
2018-07-13T22:16:54.813Z,11.40
2018-07-13T22:19:21.213Z,10.47
2018-07-13T22:21:47.734Z,11.20
2018-07-13T22:24:14.302Z,10.90
2018-07-13T22:26:40.700Z,12.07
2018-07-13T22:29:07.131Z,11.90
2018-07-13T22:31:33.605Z,11.30
2018-07-13T22:33:59.915Z,10.80
2018-07-13T22:36:26.239Z,12.00
2018-07-13T22:38:52.807Z,11.40
2018-07-13T22:41:19.697Z,11.90
2018-07-13T22:43:46.075Z,11.47
2018-07-13T22:46:12.536Z,12.00
2018-07-13T22:48:38.888Z,11.70
2018-07-13T22:51:05.253Z,11.90
2018-07-13T22:53:31.804Z,11.40
2018-07-13T22:55:58.276Z,10.67
2018-07-13T22:58:24.784Z,11.50
2018-07-13T23:00:51.159Z,11.17
2018-07-13T23:03:17.776Z,11.10
2018-07-13T23:05:44.381Z,11.00
2018-07-13T23:08:10.802Z,12.63
2018-07-13T23:10:37.184Z,11.73
2018-07-13T23:13:03.657Z,12.10
2018-07-13T23:15:29.977Z,10.00
2018-07-13T23:17:56.403Z,11.47
2018-07-13T23:20:22.727Z,11.70
2018-07-13T23:22:49.386Z,11.90
2018-07-13T23:25:15.875Z,12.57
2018-07-13T23:27:42.221Z,11.20
2018-07-13T23:30:08.587Z,11.17
2018-07-13T23:32:35.018Z,11.50
2018-07-13T23:35:01.512Z,11.17
2018-07-13T23:37:27.950Z,11.60
2018-07-13T23:39:54.363Z,10.90
2018-07-13T23:42:20.767Z,11.00
2018-07-13T23:44:47.160Z,11.10
2018-07-13T23:47:13.533Z,11.43
2018-07-13T23:49:39.894Z,12.10
2018-07-13T23:52:06.280Z,10.70
2018-07-13T23:54:32.772Z,11.20
2018-07-13T23:56:59.141Z,10.70
2018-07-13T23:59:25.695Z,11.00
